Honolulu, HI

2:06 PM HST on March 31, 2015 (GMT -1000)
Pacific Heights | | Change Station
CLOSE
Current Station
Personal Weather Station
Location: Honolulu, HI
Elevation: 528 ft
Nearby Weather Stations

Elev 528 ft 21.33 °N, 157.84 °W | Updated 16 seconds ago

Scattered Clouds
Scattered Clouds
76.5 °F
Feels Like 78 °F
N
2.0
Wind Variable Wind from SSW
Gusts 5.0 mph

Today
High -- | Low -- °F
--% Chance of Precip.
Yesterday
High -- | Low -- °F
Precip. -- in
6:25 AM 6:45 PM
Waxing Gibbous, 89% visible
Pressure 30.00 in
Visibility 10.0 miles
Clouds Few 3200 ft
Scattered Clouds 4400 ft
Scattered Clouds 8500 ft
Heat Index 78 °F
Dew Point 67 °F
Humidity 73%
Rainfall 0.04 in
Snow Depth Not available.
UV 8 out of 12
Pollen Not available.
Air Quality Not available.
Flu Activity Not available.
METAR PHNL 312353Z 23010KT 10SM FEW032 SCT044 SCT085 25/20 A3000 RMK AO2 SLP159 SHRA DSNT NW-N T02500200 10256 20206 58024

More Conditions Fewer Conditions

Pressure 30.00 in
Visibility 10.0 miles
Clouds Few 3200 ft
Scattered Clouds 4400 ft
Scattered Clouds 8500 ft
Heat Index 78 °F
Dew Point 67 °F
Humidity 73%
Rainfall 0.04 in
Snow Depth Not available.
UV 8 out of 12
Pollen Not available.
Air Quality Not available.
Flu Activity Not available.
METAR PHNL 312353Z 23010KT 10SM FEW032 SCT044 SCT085 25/20 A3000 RMK AO2 SLP159 SHRA DSNT NW-N T02500200 10256 20206 58024

More Conditions Fewer Conditions

10-Day Weather Forecast

Almanac

Astronomy

Mar. 31, 2015 Rise Set
Actual Time
Civil Twilight
Nautical Twilight
Astronomical Twilight
Moon
Length of Visible Light
Length of Day
Tomorrow will be .
, % of the Moon is Illuminated

Today's Extremes

State Highs State Lows

Community

WunderPhotos

Upload Photos

1,809,883 photos uploaded!

WunderBlogs® & News

Nearby

Air Quality

  Air Quality AQ Index Pollutant
Not available.

Snow Depth

Station Depth Elevation

Earthquake Activity

City Distance Mag. Time & Date
Minimum magnitude displayed is 2.5.

Coastal Water Temperatures

Place Temperature

Stations

Nearby Weather Stations

Station Location Temp. Windchill Dew Point Humidity Wind Precip. Elev Updated Type